createdAt,value
2023-04-23T00:00:31.834Z,3.15
2023-04-23T00:03:13.095Z,2.80
2023-04-23T00:05:46.932Z,3.15
2023-04-23T00:08:23.353Z,3.35
2023-04-23T00:10:56.027Z,2.83
2023-04-23T00:13:29.044Z,3.05
2023-04-23T00:16:02.431Z,2.90
2023-04-23T00:18:35.235Z,3.25
2023-04-23T00:21:08.919Z,2.95
2023-04-23T00:23:41.972Z,3.10
2023-04-23T00:26:14.030Z,2.88
2023-04-23T00:28:46.177Z,3.00
2023-04-23T00:31:18.620Z,3.00
2023-04-23T00:33:50.669Z,2.53
2023-04-23T00:36:22.770Z,3.47
2023-04-23T00:38:54.986Z,2.72
2023-04-23T00:41:28.432Z,2.80
2023-04-23T00:44:00.808Z,3.08
2023-04-23T00:46:34.618Z,2.75
2023-04-23T00:49:08.553Z,3.00
2023-04-23T00:51:40.810Z,3.00
2023-04-23T00:54:14.302Z,2.95
2023-04-23T00:56:46.599Z,3.08
2023-04-23T00:59:20.559Z,3.00
2023-04-23T01:01:53.915Z,2.80
2023-04-23T01:04:29.801Z,3.22
2023-04-23T01:07:03.522Z,3.58
2023-04-23T01:09:35.833Z,2.83
2023-04-23T01:12:09.642Z,2.92
2023-04-23T01:14:43.510Z,2.90
2023-04-23T01:17:16.584Z,2.78
2023-04-23T01:19:48.900Z,3.10
2023-04-23T01:22:21.619Z,3.25
2023-04-23T01:24:53.963Z,3.15
2023-04-23T01:27:26.238Z,3.05
2023-04-23T01:29:59.779Z,2.80
2023-04-23T01:32:33.896Z,2.70
2023-04-23T01:35:09.524Z,3.10
2023-04-23T01:37:45.742Z,3.15
2023-04-23T01:40:19.292Z,3.00
2023-04-23T01:42:52.154Z,3.13
2023-04-23T01:45:24.878Z,2.92
2023-04-23T01:47:57.089Z,2.90
2023-04-23T01:50:30.699Z,3.40
2023-04-23T01:53:02.851Z,2.72
2023-04-23T01:55:42.795Z,3.45
2023-04-23T01:58:17.775Z,3.30
2023-04-23T02:00:50.830Z,3.10
2023-04-23T02:03:24.215Z,3.42
2023-04-23T02:05:56.750Z,3.20
2023-04-23T02:08:29.403Z,3.00
2023-04-23T02:11:01.829Z,2.90
2023-04-23T02:13:34.212Z,3.20
2023-04-23T02:16:07.027Z,2.90
2023-04-23T02:18:39.055Z,3.35
2023-04-23T02:21:13.128Z,3.25
2023-04-23T02:23:47.472Z,3.40
2023-04-23T02:26:19.535Z,3.88
2023-04-23T02:28:53.547Z,2.65
2023-04-23T02:31:25.857Z,3.00
2023-04-23T02:33:58.273Z,2.78
2023-04-23T02:36:32.552Z,3.08
2023-04-23T02:39:04.785Z,2.75
2023-04-23T02:41:37.105Z,3.10
2023-04-23T02:44:20.827Z,3.00
2023-04-23T02:47:09.877Z,2.60
2023-04-23T02:49:57.245Z,2.80
2023-04-23T02:52:37.058Z,2.70
2023-04-23T02:55:19.302Z,2.80
2023-04-23T02:57:52.272Z,3.08
2023-04-23T03:00:25.755Z,2.80
2023-04-23T03:02:59.068Z,2.65
2023-04-23T03:07:03.496Z,3.08
2023-04-23T03:09:42.969Z,3.03
2023-04-23T03:16:24.230Z,2.80
2023-04-23T03:18:59.817Z,2.88
2023-04-23T03:21:39.521Z,3.60
2023-04-23T03:24:14.772Z,3.15
2023-04-23T03:26:47.185Z,3.60
2023-04-23T03:29:19.383Z,3.10
2023-04-23T03:31:51.359Z,3.67
2023-04-23T03:34:23.447Z,3.40
2023-04-23T03:36:56.565Z,3.15
2023-04-23T03:39:28.990Z,3.60
2023-04-23T03:42:02.027Z,3.00
2023-04-23T03:44:35.609Z,2.75
2023-04-23T03:47:08.903Z,2.95
2023-04-23T03:49:41.165Z,3.60
2023-04-23T03:52:14.440Z,3.10
2023-04-23T03:54:47.214Z,2.78
2023-04-23T03:57:21.019Z,2.58
2023-04-23T03:59:53.287Z,2.70
2023-04-23T04:02:25.616Z,2.65
2023-04-23T04:04:59.010Z,2.30
2023-04-23T04:07:33.484Z,2.80
2023-04-23T04:10:07.123Z,2.55
2023-04-23T04:12:41.148Z,2.63
2023-04-23T04:15:17.373Z,2.95
2023-04-23T04:17:51.711Z,2.60
2023-04-23T04:20:23.777Z,2.60
2023-04-23T04:22:56.365Z,2.78
2023-04-23T04:25:29.752Z,2.40
2023-04-23T04:28:01.891Z,2.58
2023-04-23T04:30:34.474Z,2.60
2023-04-23T04:34:44.891Z,2.90
2023-04-23T04:37:18.202Z,2.67
2023-04-23T04:40:09.094Z,3.03
2023-04-23T04:42:52.888Z,2.47
2023-04-23T04:45:26.080Z,2.90
2023-04-23T04:47:58.423Z,3.10
2023-04-23T04:50:31.233Z,3.03
2023-04-23T04:53:03.376Z,2.55
2023-04-23T04:55:36.439Z,2.40
2023-04-23T04:58:08.493Z,2.55
2023-04-23T05:00:41.670Z,2.50
2023-04-23T05:03:14.591Z,3.45
2023-04-23T05:05:48.660Z,2.30
2023-04-23T05:08:21.820Z,2.53
2023-04-23T05:10:54.970Z,2.85
2023-04-23T05:13:27.089Z,2.60
2023-04-23T05:15:59.103Z,2.90
2023-04-23T05:18:31.266Z,2.90
2023-04-23T05:21:03.588Z,2.83
2023-04-23T05:23:36.731Z,2.88
2023-04-23T05:26:08.897Z,2.90
2023-04-23T05:28:41.579Z,2.85
2023-04-23T05:31:13.692Z,2.60
2023-04-23T05:33:50.579Z,2.95
2023-04-23T05:36:23.612Z,3.15
2023-04-23T05:38:55.764Z,2.58
2023-04-23T05:41:27.837Z,2.80
2023-04-23T05:43:59.917Z,2.80
2023-04-23T05:46:32.139Z,2.40
2023-04-23T05:49:04.314Z,2.92
2023-04-23T05:51:37.185Z,2.55
2023-04-23T05:54:09.656Z,2.45
2023-04-23T05:56:41.620Z,2.50
2023-04-23T05:59:13.815Z,2.70
2023-04-23T06:01:47.592Z,2.53
2023-04-23T06:04:20.659Z,2.40
2023-04-23T06:06:52.921Z,2.25
2023-04-23T06:09:25.048Z,2.60
2023-04-23T06:11:57.147Z,1.83
2023-04-23T06:14:29.762Z,2.53
2023-04-23T06:17:01.837Z,2.33
2023-04-23T06:19:34.065Z,2.83
2023-04-23T06:22:06.240Z,2.80
2023-04-23T06:24:38.918Z,2.05
2023-04-23T06:27:11.400Z,2.60
2023-04-23T06:29:43.899Z,2.40
2023-04-23T06:32:17.282Z,2.15
2023-04-23T06:35:00.960Z,2.22
2023-04-23T06:37:35.642Z,2.33
2023-04-23T06:40:08.419Z,2.28
2023-04-23T06:42:40.899Z,3.10
2023-04-23T06:45:15.510Z,2.85
2023-04-23T06:47:49.488Z,2.17
2023-04-23T06:50:21.820Z,1.90
2023-04-23T06:52:54.389Z,1.88
2023-04-23T06:55:28.882Z,2.78
2023-04-23T06:58:01.134Z,2.20
2023-04-23T07:00:33.930Z,2.08
2023-04-23T07:03:06.792Z,1.38
2023-04-23T07:05:38.948Z,1.55
2023-04-23T07:08:11.190Z,1.50
2023-04-23T07:10:44.197Z,1.50
2023-04-23T07:13:17.453Z,1.73
2023-04-23T07:15:49.816Z,1.57
2023-04-23T07:18:22.283Z,1.60
2023-04-23T07:20:54.434Z,1.20
2023-04-23T07:23:26.659Z,1.40
2023-04-23T07:25:59.129Z,1.40
2023-04-23T07:28:32.231Z,1.50
2023-04-23T07:31:04.327Z,1.20
2023-04-23T07:33:36.632Z,1.67
2023-04-23T07:36:08.676Z,1.07
2023-04-23T07:38:41.173Z,1.23
2023-04-23T07:41:15.588Z,1.50
2023-04-23T07:43:54.107Z,1.40
2023-04-23T07:46:27.750Z,1.40
2023-04-23T07:49:00.992Z,1.70
2023-04-23T07:51:33.744Z,1.90
2023-04-23T07:54:06.284Z,1.60
2023-04-23T07:56:42.056Z,1.50
2023-04-23T07:59:23.309Z,1.60
2023-04-23T08:02:20.973Z,1.80
2023-04-23T08:04:58.322Z,1.50
2023-04-23T08:07:30.704Z,1.60
2023-04-23T08:10:06.207Z,1.53
2023-04-23T08:12:42.097Z,1.77
2023-04-23T08:15:15.364Z,1.73
2023-04-23T08:17:49.493Z,1.48
2023-04-23T08:20:28.944Z,1.50
2023-04-23T08:23:05.520Z,1.57
2023-04-23T08:25:41.121Z,1.40
2023-04-23T08:28:13.706Z,1.40
2023-04-23T08:30:48.633Z,1.53
2023-04-23T08:33:24.729Z,1.60
2023-04-23T08:36:01.117Z,1.77
2023-04-23T08:38:37.361Z,2.00
2023-04-23T08:41:21.989Z,1.63
2023-04-23T09:00:54.063Z,1.50
2023-04-23T09:03:40.093Z,1.90
2023-04-23T09:06:13.640Z,1.93
2023-04-23T09:08:49.504Z,2.30
2023-04-23T09:11:37.662Z,2.30
2023-04-23T09:25:56.958Z,2.10
2023-04-23T09:28:38.636Z,1.90
2023-04-23T09:31:10.919Z,2.10
2023-04-23T09:33:42.969Z,2.00
2023-04-23T09:36:26.386Z,1.73
2023-04-23T09:38:59.277Z,2.03
2023-04-23T09:41:31.649Z,2.50
2023-04-23T09:44:04.390Z,1.90
2023-04-23T09:46:41.756Z,1.53
2023-04-23T09:49:16.304Z,2.10
2023-04-23T09:51:50.064Z,2.10
2023-04-23T09:54:23.697Z,1.80
2023-04-23T09:57:01.008Z,1.83
2023-04-23T09:59:46.926Z,1.90
2023-04-23T10:02:27.176Z,1.73
2023-04-23T10:05:14.144Z,1.93
2023-04-23T10:07:54.690Z,1.97
2023-04-23T10:10:28.242Z,1.77
2023-04-23T10:13:01.840Z,1.70
2023-04-23T10:15:35.555Z,1.60
2023-04-23T10:18:09.261Z,1.40
2023-04-23T10:20:42.949Z,1.67
2023-04-23T10:23:17.294Z,1.50
2023-04-23T10:25:54.971Z,2.23
2023-04-23T10:28:33.648Z,1.70
2023-04-23T10:31:07.145Z,1.60
2023-04-23T10:37:55.001Z,1.43
2023-04-23T10:49:21.631Z,1.70
2023-04-23T10:52:21.707Z,1.50
2023-04-23T10:55:01.395Z,1.40
2023-04-23T10:58:07.906Z,1.50
2023-04-23T11:00:43.921Z,1.80
2023-04-23T11:03:37.964Z,1.50
2023-04-23T11:06:18.187Z,1.70
2023-04-23T11:09:30.988Z,1.40
2023-04-23T11:12:29.982Z,1.83
2023-04-23T11:15:14.585Z,1.70
2023-04-23T11:17:52.921Z,1.40
2023-04-23T11:20:30.649Z,1.20
2023-04-23T11:23:06.980Z,1.33
2023-04-23T11:25:43.971Z,1.27
2023-04-23T11:28:17.848Z,1.23
2023-04-23T11:30:54.113Z,1.37
2023-04-23T11:33:27.726Z,1.20
2023-04-23T11:36:02.918Z,1.20
2023-04-23T11:38:35.536Z,1.60
2023-04-23T11:41:07.961Z,1.43
2023-04-23T11:43:43.255Z,1.30
2023-04-23T11:46:15.613Z,1.20
2023-04-23T11:48:49.547Z,1.10
2023-04-23T11:51:27.676Z,1.50
2023-04-23T11:54:04.531Z,1.20
2023-04-23T11:56:38.128Z,1.17
2023-04-23T11:59:11.005Z,1.40
2023-04-23T12:01:48.853Z,1.00
2023-04-23T12:04:27.945Z,1.30
2023-04-23T12:07:04.253Z,1.13
2023-04-23T12:09:42.417Z,1.23
2023-04-23T12:12:16.312Z,1.13
2023-04-23T12:14:48.345Z,1.20
2023-04-23T12:17:20.581Z,1.20
2023-04-23T12:19:52.640Z,1.10
2023-04-23T12:22:28.510Z,1.20
2023-04-23T12:25:08.566Z,1.17
2023-04-23T12:27:43.292Z,1.20
2023-04-23T12:30:16.473Z,1.50
2023-04-23T12:32:49.164Z,1.30
2023-04-23T12:35:23.049Z,1.40
2023-04-23T12:38:30.686Z,1.10
2023-04-23T12:41:03.238Z,1.27
2023-04-23T12:43:35.361Z,1.27
2023-04-23T12:46:07.605Z,1.10
2023-04-23T12:48:40.016Z,1.40
2023-04-23T12:51:12.374Z,1.20
2023-04-23T12:53:45.778Z,1.30
2023-04-23T12:56:18.241Z,1.50
2023-04-23T12:58:51.279Z,1.40
2023-04-23T13:01:23.808Z,1.30
2023-04-23T13:03:56.588Z,1.27
2023-04-23T13:06:29.326Z,1.50
2023-04-23T13:09:03.523Z,1.20
2023-04-23T13:11:40.901Z,1.30
2023-04-23T13:14:13.381Z,1.50
2023-04-23T13:16:46.352Z,1.57
2023-04-23T13:19:18.732Z,1.50
2023-04-23T13:21:50.920Z,1.30
2023-04-23T13:24:23.242Z,1.40
2023-04-23T13:26:56.240Z,1.57
2023-04-23T13:29:28.738Z,1.30
2023-04-23T13:32:01.325Z,1.33
2023-04-23T13:34:34.442Z,1.50
2023-04-23T13:37:09.251Z,1.10
2023-04-23T13:39:41.903Z,1.20
2023-04-23T13:42:14.024Z,1.43
2023-04-23T13:44:46.022Z,1.10
2023-04-23T13:47:18.171Z,1.40
2023-04-23T13:49:50.280Z,1.17
2023-04-23T13:52:22.339Z,1.23
2023-04-23T13:54:57.048Z,1.60
2023-04-23T13:57:30.908Z,1.20
2023-04-23T14:00:03.110Z,1.43
2023-04-23T14:02:36.871Z,1.17
2023-04-23T14:05:09.595Z,1.17
2023-04-23T14:07:41.703Z,1.17
2023-04-23T14:10:15.053Z,1.30
2023-04-23T14:12:47.272Z,1.20
2023-04-23T14:15:19.995Z,1.20
2023-04-23T14:17:53.014Z,1.10
2023-04-23T14:20:27.085Z,1.40
2023-04-23T14:23:11.364Z,1.50
2023-04-23T14:26:10.704Z,1.13
2023-04-23T14:28:53.143Z,1.30
2023-04-23T14:31:27.975Z,1.20
2023-04-23T14:34:01.600Z,1.20
2023-04-23T14:36:33.758Z,1.10
2023-04-23T14:39:06.010Z,1.10
2023-04-23T14:41:40.219Z,1.40
2023-04-23T14:44:12.726Z,1.30
2023-04-23T14:46:45.409Z,1.10
2023-04-23T14:49:18.377Z,1.20
2023-04-23T14:51:57.717Z,1.20
2023-04-23T14:54:29.857Z,1.50
2023-04-23T14:57:01.910Z,1.60
2023-04-23T14:59:33.892Z,1.20
2023-04-23T15:02:06.215Z,1.27
2023-04-23T15:04:38.925Z,1.20
2023-04-23T15:07:11.226Z,1.40
2023-04-23T15:09:43.339Z,1.70
2023-04-23T15:12:37.852Z,1.43
2023-04-23T15:15:48.901Z,1.30
2023-04-23T15:18:40.874Z,1.20
2023-04-23T15:21:13.037Z,1.53
2023-04-23T15:23:45.081Z,1.43
2023-04-23T15:26:17.341Z,1.33
2023-04-23T15:28:53.718Z,1.40
2023-04-23T15:31:26.069Z,1.50
2023-04-23T15:33:59.503Z,1.80
2023-04-23T15:36:35.623Z,1.57
2023-04-23T15:39:09.006Z,1.50
2023-04-23T15:41:43.518Z,1.40
2023-04-23T15:44:27.879Z,1.50
2023-04-23T15:47:01.460Z,1.40
2023-04-23T15:49:34.621Z,1.40
2023-04-23T15:52:07.337Z,1.67
2023-04-23T15:54:39.753Z,1.57
2023-04-23T15:57:12.973Z,1.63
2023-04-23T15:59:45.543Z,1.80
2023-04-23T16:02:18.970Z,1.53
2023-04-23T16:05:01.001Z,1.50
2023-04-23T16:07:33.821Z,1.70
2023-04-23T16:10:07.761Z,1.77
2023-04-23T16:12:45.537Z,1.73
2023-04-23T16:15:20.160Z,1.87
2023-04-23T16:17:53.381Z,1.80
2023-04-23T16:20:28.636Z,1.40
2023-04-23T16:23:02.018Z,1.80
2023-04-23T16:25:34.769Z,2.00
2023-04-23T16:28:08.988Z,1.70
2023-04-23T16:30:41.992Z,1.63
2023-04-23T16:33:14.824Z,2.20
2023-04-23T16:35:47.612Z,2.20
2023-04-23T16:38:21.125Z,1.70
2023-04-23T16:40:54.416Z,1.60
2023-04-23T16:43:27.789Z,1.65
2023-04-23T16:46:00.517Z,2.33
2023-04-23T16:48:33.334Z,1.70
2023-04-23T16:51:05.739Z,1.85
2023-04-23T16:53:38.593Z,2.53
2023-04-23T16:56:11.501Z,1.60
2023-04-23T16:58:44.285Z,1.95
2023-04-23T17:01:18.160Z,1.88
2023-04-23T17:03:51.469Z,1.70
2023-04-23T17:06:32.104Z,1.70
2023-04-23T17:09:05.666Z,1.75
2023-04-23T17:11:40.121Z,1.70
2023-04-23T17:14:33.152Z,2.15
2023-04-23T17:17:05.952Z,1.88
2023-04-23T17:19:39.202Z,1.88
2023-04-23T17:22:12.645Z,1.80
2023-04-23T17:24:45.534Z,2.22
2023-04-23T17:27:18.518Z,2.08
2023-04-23T17:29:51.608Z,2.30
2023-04-23T17:32:25.022Z,2.28
2023-04-23T17:35:09.430Z,2.30
2023-04-23T17:37:43.164Z,2.03
2023-04-23T17:40:17.570Z,2.00
2023-04-23T17:42:53.163Z,1.98
2023-04-23T17:45:32.691Z,2.55
2023-04-23T17:48:05.901Z,2.40
2023-04-23T17:50:39.325Z,2.10
2023-04-23T17:53:14.159Z,2.10
2023-04-23T17:55:47.498Z,2.03
2023-04-23T17:58:21.625Z,2.35
2023-04-23T18:00:56.294Z,2.30
2023-04-23T18:03:31.017Z,2.30
2023-04-23T18:06:04.569Z,2.30
2023-04-23T18:08:39.855Z,2.40
2023-04-23T18:11:16.526Z,2.90
2023-04-23T18:13:56.567Z,2.95
2023-04-23T18:16:32.357Z,3.28
2023-04-23T18:19:05.796Z,3.00
2023-04-23T18:21:39.245Z,3.45
2023-04-23T18:24:13.596Z,3.35
2023-04-23T18:26:52.600Z,3.72
2023-04-23T18:29:26.693Z,3.20
2023-04-23T18:32:04.029Z,10.80
2023-04-23T18:34:42.121Z,8.10
2023-04-23T18:41:20.674Z,4.25
2023-04-23T18:44:07.378Z,4.45
2023-04-23T18:46:43.294Z,5.10
2023-04-23T18:49:38.690Z,5.90
2023-04-23T18:52:25.489Z,6.38
2023-04-23T18:54:59.338Z,5.30
2023-04-23T18:57:35.003Z,6.28
2023-04-23T19:00:09.667Z,3.60
2023-04-23T19:02:44.258Z,3.40
2023-04-23T19:05:18.170Z,3.35
2023-04-23T19:07:52.522Z,3.83
2023-04-23T19:10:27.054Z,4.20
2023-04-23T19:13:02.162Z,3.63
2023-04-23T19:15:37.105Z,2.80
2023-04-23T19:18:10.816Z,2.17
2023-04-23T19:20:45.904Z,2.28
2023-04-23T19:23:20.455Z,1.83
2023-04-23T19:25:54.354Z,1.77
2023-04-23T19:28:29.485Z,1.50
2023-04-23T19:31:04.410Z,1.55
2023-04-23T19:33:38.576Z,1.63
2023-04-23T19:36:15.482Z,1.50
2023-04-23T19:38:48.805Z,2.03
2023-04-23T19:41:22.991Z,1.60
2023-04-23T19:43:57.487Z,1.73
2023-04-23T19:46:31.539Z,1.80
2023-04-23T19:49:04.756Z,1.65
2023-04-23T19:51:39.120Z,2.17
2023-04-23T19:54:13.455Z,1.63
2023-04-23T19:56:47.016Z,1.42
2023-04-23T19:59:23.146Z,1.65
2023-04-23T20:01:57.446Z,1.70
2023-04-23T20:04:32.791Z,1.70
2023-04-23T20:07:08.013Z,1.88
2023-04-23T20:09:44.766Z,1.42
2023-04-23T20:12:20.366Z,1.85
2023-04-23T20:14:56.048Z,1.70
2023-04-23T20:17:31.310Z,1.60
2023-04-23T20:20:07.488Z,1.63
2023-04-23T20:22:41.474Z,1.80
2023-04-23T20:25:16.830Z,1.60
2023-04-23T20:27:51.296Z,1.60
2023-04-23T20:31:04.945Z,1.60
2023-04-23T20:33:39.002Z,1.30
2023-04-23T20:36:13.539Z,1.30
2023-04-23T20:38:47.801Z,1.40
2023-04-23T20:41:23.197Z,1.60
2023-04-23T20:44:02.348Z,1.52
2023-04-23T20:46:37.291Z,1.88
2023-04-23T20:49:10.366Z,1.40
2023-04-23T20:51:43.578Z,1.40
2023-04-23T20:54:16.610Z,1.50
2023-04-23T20:56:54.465Z,1.30
2023-04-23T20:59:29.136Z,1.60
2023-04-23T21:02:02.149Z,1.20
2023-04-23T21:04:35.282Z,1.30
2023-04-23T21:07:08.274Z,1.30
2023-04-23T21:09:41.229Z,1.50
2023-04-23T21:12:14.688Z,1.50
2023-04-23T21:14:47.733Z,2.10
2023-04-23T21:17:20.675Z,1.60
2023-04-23T21:19:53.586Z,1.55
2023-04-23T21:22:27.244Z,1.40
2023-04-23T21:25:00.475Z,1.35
2023-04-23T21:27:34.385Z,1.35
2023-04-23T21:30:22.107Z,1.30
2023-04-23T21:33:32.465Z,1.30
2023-04-23T21:36:06.057Z,1.20
2023-04-23T21:38:38.807Z,1.50
2023-04-23T21:41:11.731Z,1.20
2023-04-23T21:43:44.258Z,1.40
2023-04-23T21:46:17.037Z,1.27
2023-04-23T21:48:50.516Z,1.15
2023-04-23T21:51:28.383Z,1.35
2023-04-23T21:54:01.034Z,1.23
2023-04-23T21:56:34.161Z,1.50
2023-04-23T21:59:19.481Z,1.50
2023-04-23T22:01:54.175Z,1.70
2023-04-23T22:04:28.037Z,1.42
2023-04-23T22:07:05.637Z,1.40
2023-04-23T22:09:41.217Z,1.80
2023-04-23T22:12:13.685Z,1.50
2023-04-23T22:14:45.899Z,1.30
2023-04-23T22:17:19.062Z,1.30
2023-04-23T22:19:52.304Z,2.13
2023-04-23T22:22:25.453Z,1.40
2023-04-23T22:24:57.704Z,1.60
2023-04-23T22:27:29.918Z,1.27
2023-04-23T22:30:05.034Z,1.10
2023-04-23T22:32:39.641Z,1.30
2023-04-23T22:35:18.460Z,1.50
2023-04-23T22:37:51.179Z,1.50
2023-04-23T22:40:34.126Z,1.75
2023-04-23T22:43:06.649Z,1.48
2023-04-23T22:45:45.047Z,1.60
2023-04-23T22:48:17.909Z,1.70
2023-04-23T22:54:56.810Z,1.52
2023-04-23T22:57:29.168Z,1.73
2023-04-23T23:04:07.038Z,1.65
2023-04-23T23:06:40.192Z,1.20
2023-04-23T23:09:14.179Z,1.70
2023-04-23T23:11:46.340Z,1.58
2023-04-23T23:14:18.624Z,1.85
2023-04-23T23:17:25.713Z,1.63
2023-04-23T23:19:58.093Z,1.63
2023-04-23T23:22:30.170Z,1.80
2023-04-23T23:25:02.345Z,1.50
2023-04-23T23:31:40.214Z,1.40
2023-04-23T23:34:12.486Z,1.50
2023-04-23T23:36:45.386Z,1.70
2023-04-23T23:39:20.547Z,1.45
2023-04-23T23:41:52.695Z,1.70
2023-04-23T23:44:24.751Z,1.63
2023-04-23T23:50:49.653Z,1.50
2023-04-23T23:53:22.008Z,1.67
2023-04-23T23:55:54.059Z,1.70
2023-04-23T23:58:26.365Z,1.63
